Time;durP1;ratioP1;P1;durP2;ratioP2;P2;SDS_P1;SDS_P2;PMS_P1;PMS_P2;Temp;Humidity;BMP_temperature;BMP_pressure;BME280_temperature;BME280_humidity;BME280_pressure;Samples;Min_cycle;Max_cycle;Signal;HPM_P1;HPM_P2
2022/12/02 00:01:16;;;;;;;11.10;5.07;;;;;;;9.52;100.00;102132.75;5006093;28;20050;-81
2022/12/02 00:03:43;;;;;;;10.25;4.47;;;;;;;9.60;100.00;102147.47;5002720;28;20050;-81
2022/12/02 00:06:29;;;;;;;11.35;5.60;;;;;;;9.45;100.00;102118.88;5011585;28;20052;-81
2022/12/02 00:09:33;;;;;;;11.55;4.75;;;;;;;9.61;100.00;102135.25;5010666;28;20498;-81
2022/12/02 00:12:10;;;;;;;;;;;;;;;9.55;100.00;102137.97;5011812;28;20072;-81
2022/12/02 00:14:39;;;;;;;18.52;8.57;;;;;;;9.41;100.00;102131.13;5031997;28;19925;-81
2022/12/02 00:17:05;;;;;;;12.32;5.75;;;;;;;9.32;100.00;102113.78;5012097;28;20108;-81
2022/12/02 00:19:32;;;;;;;13.80;6.85;;;;;;;9.48;100.00;102127.56;5007468;28;20047;-81
2022/12/02 00:21:59;;;;;;;13.65;6.32;;;;;;;9.55;100.00;102127.50;5004457;28;20108;-81
2022/12/02 00:24:25;;;;;;;13.50;6.40;;;;;;;9.38;100.00;102094.53;5010215;28;20046;-80
2022/12/02 00:26:52;;;;;;;13.93;6.22;;;;;;;9.65;100.00;102137.84;5010599;28;20049;-81
2022/12/02 00:29:19;;;;;;;14.45;6.65;;;;;;;9.54;100.00;102110.06;5014519;28;20183;-80
2022/12/02 00:31:46;;;;;;;18.42;8.57;;;;;;;9.60;100.00;102133.53;5010883;28;20050;-81
2022/12/02 00:34:13;;;;;;;14.55;6.78;;;;;;;9.46;100.00;102097.09;5010321;28;20396;-80
2022/12/02 00:36:40;;;;;;;15.50;6.75;;;;;;;9.64;100.00;102130.00;5007998;28;20546;-81
2022/12/02 00:39:06;;;;;;;13.73;6.05;;;;;;;9.62;100.00;102129.16;5011999;28;20056;-80
2022/12/02 00:41:33;;;;;;;13.13;6.10;;;;;;;9.62;100.00;102118.69;5005966;28;20054;-80
2022/12/02 00:46:45;;;;;;;13.43;6.45;;;;;;;9.61;100.00;102116.94;5010647;28;20050;-81
2022/12/02 00:49:14;;;;;;;18.27;9.02;;;;;;;9.50;100.00;102117.94;5011505;28;20108;-81
2022/12/02 00:51:43;;;;;;;17.20;8.70;;;;;;;9.57;100.00;102123.97;5006042;28;20064;-82
2022/12/02 00:54:10;;;;;;;18.20;9.30;;;;;;;9.60;100.00;102117.84;5010593;28;20058;-81
2022/12/02 00:56:37;;;;;;;22.92;12.13;;;;;;;9.36;100.00;102103.28;5008863;28;20057;-81
2022/12/02 00:59:04;;;;;;;19.70;8.63;;;;;;;9.63;100.00;102128.25;5010430;28;20132;-81
2022/12/02 01:01:34;;;;;;;22.65;11.50;;;;;;;9.51;100.00;102100.53;5010270;28;20061;-82
2022/12/02 01:04:01;;;;;;;28.67;13.10;;;;;;;9.42;100.00;102127.63;5011980;28;20581;-81
2022/12/02 01:06:28;;;;;;;19.85;10.98;;;;;;;9.50;100.00;102119.69;5035114;28;20837;-81
2022/12/02 01:08:55;;;;;;;25.02;12.77;;;;;;;9.41;100.00;102096.28;4996829;28;20061;-82
2022/12/02 01:11:21;;;;;;;23.30;13.00;;;;;;;9.37;100.00;102131.19;5003931;28;20042;-81
2022/12/02 01:13:48;;;;;;;19.40;10.25;;;;;;;9.62;100.00;102130.00;5008544;28;20046;-82
2022/12/02 01:16:15;;;;;;;23.65;12.05;;;;;;;9.62;100.00;102130.00;5010507;28;20100;-82
2022/12/02 01:18:42;;;;;;;23.35;12.13;;;;;;;9.36;100.00;102092.84;4998737;28;20046;-81
2022/12/02 01:21:09;;;;;;;24.63;13.77;;;;;;;9.54;100.00;102129.22;4997502;28;20109;-82
2022/12/02 01:23:35;;;;;;;19.17;10.05;;;;;;;9.68;100.00;102129.97;5011000;28;20053;-82
2022/12/02 01:26:02;;;;;;;22.00;11.15;;;;;;;9.67;100.00;102117.75;5011902;28;20112;-82
2022/12/02 01:28:29;;;;;;;24.45;11.38;;;;;;;9.68;100.00;102129.97;5006392;28;20447;-82
2022/12/02 01:30:55;;;;;;;22.92;12.07;;;;;;;9.77;100.00;102128.97;4996149;28;20069;-82
2022/12/02 01:33:22;;;;;;;17.67;8.63;;;;;;;9.67;100.00;102109.91;5000328;28;20046;-81
2022/12/02 01:35:49;;;;;;;21.05;9.93;;;;;;;9.81;100.00;102137.63;5006086;28;20089;-81
2022/12/02 01:38:15;;;;;;;19.30;10.77;;;;;;;9.76;100.00;102139.47;5010075;28;20058;-81
2022/12/02 01:40:42;;;;;;;18.15;9.80;;;;;;;9.79;100.00;102136.78;5009430;28;20054;-81
2022/12/02 01:43:10;;;;;;;18.05;9.38;;;;;;;9.76;100.00;102129.00;5005918;28;20428;-81
2022/12/02 01:45:37;;;;;;;18.25;9.25;;;;;;;9.56;100.00;102122.25;4991765;28;20114;-81
2022/12/02 01:48:04;;;;;;;17.13;8.35;;;;;;;9.84;100.00;102148.97;5006620;28;20384;-81
2022/12/02 01:50:31;;;;;;;20.48;10.00;;;;;;;9.72;100.00;102140.38;5001472;28;20109;-81
2022/12/02 01:52:59;;;;;;;18.33;9.25;;;;;;;9.82;100.00;102155.94;5008601;28;20120;-81
2022/12/02 01:55:27;;;;;;;18.85;8.57;;;;;;;9.75;100.00;102135.09;4999709;28;20203;-81
2022/12/02 01:57:56;;;;;;;18.00;8.45;;;;;;;9.86;100.00;102148.91;4997844;28;20396;-80
2022/12/02 02:00:24;;;;;;;18.17;9.15;;;;;;;9.92;100.00;102145.38;5005818;28;20038;-80
2022/12/02 02:02:50;;;;;;;22.17;11.38;;;;;;;9.69;100.00;102142.13;5008135;28;20050;-81
2022/12/02 02:05:22;;;;;;;18.95;9.70;;;;;;;9.84;100.00;102155.91;5013996;28;20046;-80
2022/12/02 02:07:53;;;;;;;23.70;11.13;;;;;;;9.54;100.00;102137.06;5012601;28;20699;-80
2022/12/02 02:10:24;;;;;;;18.20;9.60;;;;;;;9.68;100.00;102148.28;5012042;28;20068;-80
2022/12/02 02:12:52;;;;;;;16.58;7.38;;;;;;;9.75;100.00;102128.13;5001438;28;20371;-81
2022/12/02 02:15:19;;;;;;;17.90;9.10;;;;;;;9.93;100.00;102145.34;5014855;28;20058;-81
2022/12/02 02:17:47;;;;;;;16.67;8.32;;;;;;;9.82;100.00;102147.22;5013913;28;20116;-81
2022/12/02 02:20:20;;;;;;;14.80;7.25;;;;;;;9.84;100.00;102146.34;5014249;28;20046;-81
2022/12/02 02:23:05;;;;;;;19.33;10.73;;;;;;;9.74;100.00;102147.31;5008674;28;20123;-81
2022/12/02 02:25:33;;;;;;;17.23;8.82;;;;;;;9.86;100.00;102143.69;5006775;28;20404;-81
2022/12/02 02:28:00;;;;;;;16.67;8.43;;;;;;;9.79;100.00;102142.03;5013862;28;20112;-81
2022/12/02 02:30:29;;;;;;;17.63;8.43;;;;;;;9.83;100.00;102136.75;5014663;28;20556;-82
2022/12/02 02:32:56;;;;;;;17.92;8.40;;;;;;;9.80;100.00;102128.06;4999644;28;20053;-79
2022/12/02 02:35:23;;;;;;;15.23;7.70;;;;;;;9.78;100.00;102140.31;5003882;28;20049;-81
2022/12/02 02:37:52;;;;;;;22.50;9.85;;;;;;;9.68;100.00;102143.03;5013752;28;20045;-81
2022/12/02 02:40:23;;;;;;;21.05;10.13;;;;;;;9.65;100.00;102134.31;5015230;28;20042;-80
2022/12/02 02:42:52;;;;;;;24.08;12.38;;;;;;;9.80;100.00;102155.09;5013445;28;20729;-80
2022/12/02 02:45:22;;;;;;;21.95;10.07;;;;;;;9.82;100.00;102147.22;5014296;28;20480;-81
2022/12/02 02:47:49;;;;;;;19.67;9.88;;;;;;;9.75;100.00;102146.44;5014114;28;20050;-81
2022/12/02 02:50:17;;;;;;;16.92;7.95;;;;;;;9.68;100.00;102129.06;5012734;28;20057;-82
2022/12/02 02:52:44;;;;;;;20.23;9.18;;;;;;;9.74;100.00;102157.78;5013772;28;20480;-81
2022/12/02 02:55:18;;;;;;;25.00;11.70;;;;;;;9.62;100.00;102161.41;5014730;28;20054;-81
2022/12/02 02:57:45;;;;;;;22.30;11.68;;;;;;;9.64;100.00;102167.47;5014012;28;20054;-82
2022/12/02 03:00:13;;;;;;;18.38;9.57;;;;;;;9.73;100.00;102153.44;5013636;28;20042;-81
2022/12/02 03:02:40;;;;;;;19.90;10.52;;;;;;;9.76;100.00;102161.25;5013044;28;20053;-81
2022/12/02 03:05:08;;;;;;;20.90;10.43;;;;;;;9.75;100.00;102167.34;5013326;28;20125;-81
2022/12/02 03:07:35;;;;;;;16.73;8.13;;;;;;;9.90;100.00;102153.25;5013799;28;20050;-81
2022/12/02 03:10:05;;;;;;;17.67;9.27;;;;;;;9.65;100.00;102130.00;5014249;28;20460;-81
2022/12/02 03:12:32;;;;;;;20.33;9.90;;;;;;;9.68;100.00;102170.91;5011898;28;20538;-81
2022/12/02 03:15:01;;;;;;;17.02;7.97;;;;;;;9.69;100.00;102163.06;5012918;28;20116;-81
2022/12/02 03:17:28;;;;;;;20.23;10.40;;;;;;;9.64;100.00;102171.84;5045128;28;20562;-81
2022/12/02 03:19:55;;;;;;;17.35;7.90;;;;;;;9.71;100.00;102170.91;5013991;28;20053;-81
2022/12/02 03:22:22;;;;;;;20.20;8.73;;;;;;;9.67;100.00;102174.44;5012944;28;20042;-81
2022/12/02 03:24:50;;;;;;;18.98;9.45;;;;;;;9.69;100.00;102176.13;5012502;28;20065;-81
2022/12/02 03:27:17;;;;;;;20.45;10.00;;;;;;;9.51;100.00;102163.28;5011686;28;20467;-81
2022/12/02 03:29:44;;;;;;;19.58;9.90;;;;;;;9.70;100.00;102179.59;5013427;28;20072;-81
2022/12/02 03:32:12;;;;;;;16.00;7.63;;;;;;;9.74;100.00;102169.97;5013121;28;20565;-81
2022/12/02 03:34:40;;;;;;;16.77;6.75;;;;;;;9.78;100.00;102172.56;5013391;28;20053;-80
2022/12/02 03:37:08;;;;;;;15.68;7.80;;;;;;;9.68;100.00;102168.31;5012110;28;20053;-81
2022/12/02 03:39:36;;;;;;;14.25;6.60;;;;;;;9.61;100.00;102159.66;5011585;28;20092;-81
2022/12/02 03:42:04;;;;;;;17.83;8.25;;;;;;;9.60;100.00;102171.00;5014040;28;20120;-80
2022/12/02 03:44:31;;;;;;;13.70;7.00;;;;;;;9.47;100.00;102162.44;5011290;28;20046;-82
2022/12/02 03:46:58;;;;;;;14.43;7.07;;;;;;;9.67;100.00;102167.44;5012456;28;20050;-81
2022/12/02 03:49:24;;;;;;;13.90;6.93;;;;;;;9.49;100.00;102162.41;5012750;28;20049;-82
2022/12/02 03:51:51;;;;;;;14.05;6.30;;;;;;;9.70;100.00;102169.16;5012898;28;20053;-81
2022/12/02 03:54:18;;;;;;;21.23;8.73;;;;;;;9.58;100.00;102164.06;5012259;28;20446;-81
2022/12/02 03:56:45;;;;;;;19.02;10.55;;;;;;;9.46;100.00;102179.00;5013457;28;20112;-81
2022/12/02 03:59:22;;;;;;;18.88;9.30;;;;;;;9.49;100.00;102162.41;5010679;28;20104;-82
2022/12/02 04:01:49;;;;;;;15.13;7.45;;;;;;;9.63;100.00;102175.34;5013713;28;20380;-82
2022/12/02 04:04:15;;;;;;;17.08;7.90;;;;;;;9.64;100.00;102164.00;5012479;28;20050;-82
2022/12/02 04:06:42;;;;;;;15.32;6.80;;;;;;;9.77;100.00;102168.19;5012435;28;20053;-81
2022/12/02 04:09:09;;;;;;;16.10;7.40;;;;;;;9.71;100.00;102170.91;5011672;28;20104;-81
2022/12/02 04:11:36;;;;;;;14.88;6.70;;;;;;;9.64;100.00;102151.78;5011192;28;20480;-80
2022/12/02 04:14:02;;;;;;;20.15;9.50;;;;;;;9.53;100.00;102161.50;5011888;28;20050;-81
2022/12/02 04:16:29;;;;;;;14.77;7.55;;;;;;;9.29;100.00;102126.88;5010633;28;20373;-80
2022/12/02 04:18:56;;;;;;;17.52;7.50;;;;;;;9.62;100.00;102165.78;4997236;28;20129;-81
2022/12/02 04:21:23;;;;;;;14.13;7.07;;;;;;;9.51;100.00;102158.03;5012613;28;20483;-80
2022/12/02 04:23:51;;;;;;;19.30;9.52;;;;;;;9.76;100.00;102195.25;5011226;28;20053;-82
2022/12/02 04:26:19;;;;;;;19.60;10.25;;;;;;;9.62;100.00;102181.47;5011028;28;20053;-80
2022/12/02 04:28:46;;;;;;;14.10;7.88;;;;;;;9.72;100.00;102174.38;5012067;28;20054;-81
2022/12/02 04:31:13;;;;;;;16.25;8.13;;;;;;;9.77;100.00;102194.34;5009690;28;20042;-81
2022/12/02 04:33:39;;;;;;;16.23;7.80;;;;;;;9.72;100.00;102187.44;5010993;28;20146;-81
2022/12/02 04:36:06;;;;;;;15.77;8.38;;;;;;;9.78;100.00;102192.63;5008775;28;20053;-81
2022/12/02 04:38:33;;;;;;;16.08;7.45;;;;;;;9.69;100.00;102176.13;5003751;28;20049;-81
2022/12/02 04:41:00;;;;;;;18.48;8.93;;;;;;;9.66;100.00;102160.47;5011030;28;20058;-81
2022/12/02 04:43:26;;;;;;;18.63;9.00;;;;;;;9.72;100.00;102174.38;5002988;28;20058;-82
2022/12/02 04:45:53;;;;;;;13.82;6.75;;;;;;;9.88;100.00;102191.66;5000778;28;20057;-81
2022/12/02 04:48:20;;;;;;;15.25;7.85;;;;;;;9.69;100.00;102160.44;5010391;28;20049;-81
2022/12/02 04:50:46;;;;;;;18.23;9.18;;;;;;;9.69;100.00;102178.75;5010829;28;20546;-81
2022/12/02 04:53:13;;;;;;;13.23;6.40;;;;;;;9.87;100.00;102179.44;5011584;28;20388;-80
2022/12/02 04:55:42;;;;;;;12.55;6.35;;;;;;;9.88;100.00;102178.56;5011992;28;20058;-81
2022/12/02 04:58:09;;;;;;;11.80;6.00;;;;;;;9.87;100.00;102185.53;5010233;28;20084;-80
2022/12/02 05:00:35;;;;;;;14.70;7.80;;;;;;;9.93;100.00;102181.09;5010323;28;20046;-81
2022/12/02 05:03:02;;;;;;;15.32;8.48;;;;;;;9.86;100.00;102180.31;5008914;28;20081;-82
2022/12/02 05:05:29;;;;;;;15.68;7.30;;;;;;;9.98;100.00;102187.16;5000502;28;20045;-81
2022/12/02 05:07:56;;;;;;;13.77;7.40;;;;;;;9.72;100.00;102151.72;5010239;28;20058;-81
2022/12/02 05:10:23;;;;;;;12.25;6.05;;;;;;;9.98;100.00;102184.53;5010549;28;20412;-81
2022/12/02 05:12:50;;;;;;;11.00;5.43;;;;;;;10.11;100.00;102204.47;4998212;28;20096;-81
2022/12/02 05:15:18;;;;;;;10.68;4.90;;;;;;;10.08;100.00;102196.63;4999040;28;20057;-82
2022/12/02 05:17:45;;;;;;;18.52;8.57;;;;;;;9.94;100.00;102193.31;5005954;28;20484;-82
2022/12/02 05:20:12;;;;;;;13.75;6.63;;;;;;;10.00;100.00;102193.22;5011429;28;20046;-81
2022/12/02 05:22:39;;;;;;;13.10;6.60;;;;;;;10.01;100.00;102184.50;5012298;28;20450;-82
2022/12/02 05:25:06;;;;;;;14.00;6.68;;;;;;;10.05;100.00;102194.03;5011449;28;20050;-82
2022/12/02 05:27:33;;;;;;;12.90;6.22;;;;;;;10.03;100.00;102182.72;5011599;28;20053;-82
2022/12/02 05:30:02;;;;;;;15.95;7.65;;;;;;;10.05;100.00;102194.03;5010203;28;20072;-82
2022/12/02 05:32:29;;;;;;;12.68;5.55;;;;;;;10.11;100.00;102193.09;4998981;28;20045;-80
2022/12/02 05:34:56;;;;;;;12.13;5.97;;;;;;;10.04;100.00;102176.63;5008892;28;20062;-81
2022/12/02 05:37:22;;;;;;;14.95;6.82;;;;;;;10.12;100.00;102195.69;5014863;28;20095;-81
2022/12/02 05:39:50;;;;;;;12.48;5.75;;;;;;;10.17;100.00;102200.88;5018531;28;20045;-82
2022/12/02 05:42:16;;;;;;;20.67;8.90;;;;;;;10.09;100.00;102195.72;5014631;28;20053;-82
2022/12/02 05:44:43;;;;;;;15.55;7.90;;;;;;;10.09;100.00;102200.97;5013658;28;20058;-79
2022/12/02 05:47:13;;;;;;;13.95;6.38;;;;;;;10.04;100.00;102187.94;5015776;28;20095;-81
2022/12/02 05:49:41;;;;;;;14.85;7.53;;;;;;;10.11;100.00;102208.81;5015215;28;20046;-81
2022/12/02 05:52:22;;;;;;;16.65;7.82;;;;;;;10.14;100.00;102209.63;5008395;28;20160;-81
2022/12/02 05:55:06;;;;;;;12.60;5.72;;;;;;;10.20;100.00;102208.72;5012432;28;20046;-82
2022/12/02 05:57:33;;;;;;;17.73;7.93;;;;;;;10.02;100.00;102200.19;5009805;28;20072;-81
2022/12/02 06:00:20;;;;;;;18.02;8.82;;;;;;;9.86;100.00;102178.56;5014108;28;20046;-80
2022/12/02 06:02:58;;;;;;;16.15;8.77;;;;;;;10.05;100.00;102194.91;5005837;28;20104;-81
2022/12/02 06:05:38;;;;;;;15.82;7.65;;;;;;;10.15;100.00;102203.53;5007613;28;20054;-82
2022/12/02 06:08:15;;;;;;;18.65;9.15;;;;;;;10.11;100.00;102206.19;5014350;28;20054;-81
2022/12/02 06:10:48;;;;;;;14.50;7.22;;;;;;;10.24;100.00;102208.63;5006870;28;20104;-81
2022/12/02 06:13:26;;;;;;;14.38;7.35;;;;;;;10.24;100.00;102213.00;5016966;28;20489;-80
2022/12/02 06:15:54;;;;;;;16.73;8.25;;;;;;;10.25;100.00;102213.00;5017543;28;20478;-82
2022/12/02 06:18:33;;;;;;;19.23;8.13;;;;;;;10.27;100.00;102215.59;5016663;28;20053;-81
2022/12/02 06:21:03;;;;;;;20.58;7.97;;;;;;;10.19;100.00;102209.59;5017207;28;20054;-81
2022/12/02 06:23:31;;;;;;;20.02;9.15;;;;;;;10.19;100.00;102201.72;5016298;28;20045;-81
2022/12/02 06:25:59;;;;;;;17.65;8.77;;;;;;;10.19;100.00;102204.34;5005545;28;20054;-80
2022/12/02 06:28:37;;;;;;;14.98;7.18;;;;;;;10.30;100.00;102222.53;5014055;28;20096;-81
2022/12/02 06:31:36;;;;;;;20.83;9.55;;;;;;;10.25;100.00;102231.31;5007931;28;20046;-81
2022/12/02 06:34:26;;;;;;;16.20;7.57;;;;;;;10.33;100.00;102227.78;5012123;28;20057;-81
2022/12/02 06:36:57;;;;;;;15.65;7.20;;;;;;;10.22;100.00;102218.25;5015374;28;20050;-81
2022/12/02 06:39:24;;;;;;;16.10;7.68;;;;;;;10.09;100.00;102203.56;5014167;28;20124;-81
2022/12/02 06:41:52;;;;;;;15.75;6.43;;;;;;;10.31;100.00;102225.16;5014062;28;20053;-82
2022/12/02 06:47:32;;;;;;;19.33;8.40;;;;;;;10.37;100.00;102246.03;5015218;28;20050;-82
2022/12/02 06:50:27;;;;;;;15.70;6.32;;;;;;;10.53;100.00;102246.69;5027102;28;20061;-82
2022/12/02 06:53:18;;;;;;;13.00;5.85;;;;;;;10.45;100.00;102253.81;5002044;28;20100;-83
2022/12/02 06:55:46;;;;;;;16.67;7.05;;;;;;;10.30;100.00;102246.09;5025296;28;20050;-82
2022/12/02 06:58:18;;;;;;;13.85;6.05;;;;;;;10.30;100.00;102239.09;5012184;28;20049;-82
2022/12/02 07:00:45;;;;;;;17.27;6.72;;;;;;;10.25;100.00;102239.19;5007037;28;20120;-82
2022/12/02 07:03:29;;;;;;;17.23;7.15;;;;;;;10.22;100.00;102239.19;5010141;28;20503;-83
2022/12/02 07:06:13;;;;;;;21.58;8.18;;;;;;;9.86;100.00;102228.28;5010088;28;20050;-84
2022/12/02 07:08:39;;;;;;;19.50;7.95;;;;;;;9.91;100.00;102249.16;5013459;28;20682;-84
2022/12/02 07:11:49;;;;;;;17.08;6.20;;;;;;;10.01;100.00;102249.94;4999502;28;20050;-82
2022/12/02 07:14:25;;;;;;;15.20;6.10;;;;;;;10.04;100.00;102256.00;5008384;28;20388;-84
2022/12/02 07:16:58;;;;;;;14.13;5.57;;;;;;;9.98;100.00;102248.19;5008616;28;20053;-83
2022/12/02 07:19:44;;;;;;;12.88;5.10;;;;;;;10.14;100.00;102258.50;5004974;28;20063;-84
2022/12/02 07:22:34;;;;;;;13.27;5.60;;;;;;;10.06;100.00;102266.44;5006561;28;20045;-82
2022/12/02 07:25:21;;;;;;;15.77;5.88;;;;;;;10.04;100.00;102268.22;4989479;28;20042;-82
2022/12/02 07:27:50;;;;;;;15.05;5.20;;;;;;;10.10;100.00;102268.13;5002541;28;20475;-82
2022/12/02 07:30:28;;;;;;;13.35;5.43;;;;;;;10.20;100.00;102266.31;5004983;28;20045;-83
2022/12/02 07:32:55;;;;;;;15.98;6.75;;;;;;;10.10;100.00;102262.03;5010847;28;20054;-83
2022/12/02 07:35:23;;;;;;;18.27;7.72;;;;;;;10.01;100.00;102274.34;5007722;28;20054;-83
2022/12/02 07:37:50;;;;;;;15.95;6.90;;;;;;;9.89;100.00;102243.06;5005097;28;20709;-83
2022/12/02 07:40:18;;;;;;;13.63;5.90;;;;;;;10.16;100.00;102273.28;5034304;28;20046;-82
2022/12/02 07:42:44;;;;;;;18.67;7.63;;;;;;;9.72;100.00;102208.38;5004366;28;20050;-83
2022/12/02 07:45:13;;;;;;;18.10;7.03;;;;;;;10.04;100.00;102276.94;5009004;28;20104;-83
2022/12/02 07:47:40;;;;;;;13.70;5.65;;;;;;;10.07;100.00;102276.00;5008042;28;20050;-82
2022/12/02 07:50:09;;;;;;;14.85;6.07;;;;;;;9.95;100.00;102270.91;5008934;28;20053;-82
2022/12/02 07:52:36;;;;;;;15.63;5.45;;;;;;;9.90;100.00;102286.69;4999317;28;20111;-84
2022/12/02 07:55:04;;;;;;;15.00;6.60;;;;;;;9.95;100.00;102287.50;5011513;28;20415;-83
2022/12/02 07:57:30;;;;;;;12.93;5.28;;;;;;;9.93;100.00;102285.75;5011001;28;20472;-83
2022/12/02 08:00:02;;;;;;;16.92;6.28;;;;;;;9.86;100.00;102278.00;5003353;28;20053;-83
2022/12/02 08:02:29;;;;;;;14.98;5.50;;;;;;;9.76;100.00;102265.03;5011965;28;20077;-83
2022/12/02 08:04:55;;;;;;;11.45;4.65;;;;;;;9.81;100.00;102255.34;5011732;28;20117;-83
2022/12/02 08:07:22;;;;;;;15.15;5.57;;;;;;;9.83;100.00;102291.09;5011125;28;20137;-82
2022/12/02 08:09:49;;;;;;;15.07;6.00;;;;;;;9.81;100.00;102292.88;5013678;28;20049;-82
2022/12/02 08:12:16;;;;;;;13.15;5.10;;;;;;;9.70;100.00;102292.06;5019577;28;20053;-82
2022/12/02 08:14:42;;;;;;;21.38;6.05;;;;;;;9.82;100.00;102307.66;5009843;28;20749;-83
2022/12/02 08:17:09;;;;;;;12.95;4.38;;;;;;;9.96;100.00;102312.75;5008313;28;20554;-82
2022/12/02 08:19:36;;;;;;;21.15;5.93;;;;;;;9.69;100.00;102274.66;5015298;28;20052;-82
2022/12/02 08:22:03;;;;;;;23.08;6.55;;;;;;;9.73;100.00;102299.91;5016502;28;20049;-84
2022/12/02 08:24:29;;;;;;;16.85;6.60;;;;;;;9.67;100.00;102302.59;5011729;28;20054;-82
2022/12/02 08:26:56;;;;;;;15.75;6.10;;;;;;;9.64;100.00;102297.38;5016426;28;20108;-81
2022/12/02 08:29:23;;;;;;;16.90;6.22;;;;;;;9.50;100.00;102285.28;5007080;28;20099;-82
2022/12/02 08:31:50;;;;;;;14.07;6.03;;;;;;;9.51;100.00;102280.94;5007695;28;20076;-81
2022/12/02 08:34:17;;;;;;;19.90;6.45;;;;;;;9.47;100.00;102289.66;5019343;28;20053;-82
2022/12/02 08:36:43;;;;;;;19.23;7.75;;;;;;;9.46;100.00;102286.19;5017581;28;20499;-82
2022/12/02 08:39:10;;;;;;;20.73;7.40;;;;;;;9.49;100.00;102278.31;5015417;28;20058;-80
2022/12/02 08:41:38;;;;;;;24.88;8.45;;;;;;;9.66;100.00;102322.63;5017067;28;20050;-82
2022/12/02 08:44:05;;;;;;;17.45;7.43;;;;;;;9.53;100.00;102315.78;5014721;28;20058;-81
2022/12/02 08:46:32;;;;;;;18.73;7.25;;;;;;;9.56;100.00;102313.13;5014378;28;20479;-81
2022/12/02 08:48:59;;;;;;;17.58;6.68;;;;;;;9.61;100.00;102300.00;5016292;28;20050;-82
2022/12/02 08:51:26;;;;;;;29.77;9.63;;;;;;;9.71;100.00;102304.28;5006493;28;20351;-81
2022/12/02 08:53:53;;;;;;;18.88;8.10;;;;;;;9.75;100.00;102331.28;5043423;28;20455;-82
2022/12/02 08:56:20;;;;;;;16.98;6.32;;;;;;;9.54;100.00;102295.72;5013933;28;20053;-82
2022/12/02 08:58:47;;;;;;;19.42;8.20;;;;;;;9.67;100.00;102333.97;5016897;28;20049;-82
2022/12/02 09:01:13;;;;;;;22.58;7.70;;;;;;;9.47;100.00;102301.00;5016449;28;20046;-82
2022/12/02 09:03:40;;;;;;;20.50;8.32;;;;;;;9.07;100.00;102277.75;5019118;28;20483;-82
2022/12/02 09:06:07;;;;;;;19.73;8.75;;;;;;;9.30;100.00;102314.19;5014387;28;20046;-82
2022/12/02 09:08:33;;;;;;;19.58;7.63;;;;;;;9.67;100.00;102333.97;5012933;28;20061;-82
2022/12/02 09:11:01;;;;;;;19.63;8.23;;;;;;;9.86;100.00;102346.00;5013906;28;20049;-83
2022/12/02 09:13:28;;;;;;;19.20;7.57;;;;;;;9.79;100.00;102346.06;5013679;28;20132;-83
2022/12/02 09:15:55;;;;;;;20.40;8.63;;;;;;;9.47;100.00;102302.72;5016552;28;20057;-83
2022/12/02 09:18:23;;;;;;;19.52;7.80;;;;;;;9.86;100.00;102343.41;5015404;28;20104;-82
2022/12/02 09:20:50;;;;;;;17.10;8.18;;;;;;;9.66;100.00;102338.31;5015739;28;20053;-82
2022/12/02 09:23:17;;;;;;;21.45;7.65;;;;;;;9.75;100.00;102337.38;5009518;28;20059;-83
2022/12/02 09:25:44;;;;;;;17.60;7.70;;;;;;;9.60;100.00;102322.69;5019299;28;20454;-83
2022/12/02 09:28:10;;;;;;;20.27;7.38;;;;;;;9.77;100.00;102339.97;5018989;28;20065;-83
2022/12/02 09:30:37;;;;;;;18.05;7.57;;;;;;;9.61;100.00;102327.03;5019760;28;20478;-84
2022/12/02 09:33:04;;;;;;;23.27;8.30;;;;;;;9.53;100.00;102343.69;5019727;28;20503;-82
2022/12/02 09:35:30;;;;;;;21.17;6.85;;;;;;;9.41;100.00;102340.25;5019033;28;20134;-82
2022/12/02 09:37:57;;;;;;;17.13;6.53;;;;;;;9.48;100.00;102328.88;5018484;28;20101;-83
2022/12/02 09:40:24;;;;;;;16.33;7.18;;;;;;;9.74;100.00;102340.00;5003397;28;20057;-83
2022/12/02 09:42:51;;;;;;;13.00;5.10;;;;;;;9.56;100.00;102323.59;5018272;28;20049;-83
2022/12/02 09:45:18;;;;;;;15.23;6.43;;;;;;;9.79;100.00;102362.66;5017728;28;20061;-83
2022/12/02 09:47:45;;;;;;;13.57;5.32;;;;;;;9.99;100.00;102382.53;5014127;28;20055;-83
2022/12/02 09:50:13;;;;;;;14.50;5.55;;;;;;;9.68;100.00;102359.22;5018802;28;20057;-84
2022/12/02 09:52:40;;;;;;;15.45;5.53;;;;;;;9.87;100.00;102381.75;5013036;28;20046;-82
2022/12/02 09:55:13;;;;;;;17.05;5.70;;;;;;;9.64;100.00;102391.53;5018748;28;20050;-84
2022/12/02 09:57:40;;;;;;;14.52;5.32;;;;;;;9.64;100.00;102383.69;5015261;28;20045;-83
2022/12/02 10:00:13;;;;;;;16.27;6.40;;;;;;;9.43;100.00;102384.69;5017401;28;20484;-83
2022/12/02 10:02:48;;;;;;;16.33;5.75;;;;;;;9.25;100.00;102338.63;5021207;28;20458;-84
2022/12/02 10:05:18;;;;;;;15.85;6.90;;;;;;;9.29;100.00;102369.94;5023704;28;20052;-84
2022/12/02 10:07:46;;;;;;;16.55;6.78;;;;;;;9.25;100.00;102362.16;5022254;28;20049;-84
2022/12/02 10:10:17;;;;;;;18.60;7.35;;;;;;;9.01;100.00;102369.25;5023314;28;20042;-84
2022/12/02 10:12:44;;;;;;;24.17;6.35;;;;;;;9.12;100.00;102366.59;5022837;28;20523;-84
2022/12/02 10:15:27;;;;;;;19.98;7.18;;;;;;;9.22;100.00;102367.38;5022352;28;20070;-84
2022/12/02 10:17:55;;;;;;;22.35;7.07;;;;;;;9.32;100.00;102395.22;5023378;28;20061;-84
2022/12/02 10:20:25;;;;;;;22.25;8.40;;;;;;;9.11;100.00;102370.94;5021787;28;20052;-83
2022/12/02 10:23:13;;;;;;;16.15;6.28;;;;;;;9.27;100.00;102403.06;5009159;28;20046;-84
2022/12/02 10:25:43;;;;;;;22.60;6.93;;;;;;;9.21;100.00;102383.97;5026346;28;20056;-82
2022/12/02 10:28:26;;;;;;;15.35;5.85;;;;;;;9.37;100.00;102403.91;5026797;28;20108;-83
2022/12/02 10:31:07;;;;;;;18.60;7.13;;;;;;;9.09;100.00;102366.59;5022552;28;20096;-82
2022/12/02 10:33:37;;;;;;;14.93;5.45;;;;;;;9.29;100.00;102377.78;5023085;28;20049;-83
2022/12/02 10:36:04;;;;;;;14.90;5.80;;;;;;;9.12;100.00;102362.22;5011603;28;20050;-81
2022/12/02 10:38:34;;;;;;;20.33;6.18;;;;;;;9.41;100.00;102405.63;5020650;28;20137;-82
2022/12/02 10:41:13;;;;;;;12.68;5.28;;;;;;;9.46;100.00;102418.66;5020902;28;20076;-82
2022/12/02 10:43:51;;;;;;;14.82;5.28;;;;;;;9.27;100.00;102412.66;5020956;28;20058;-83
2022/12/02 10:46:22;;;;;;;14.30;5.20;;;;;;;9.48;100.00;102414.28;5025021;28;20042;-82
2022/12/02 10:48:49;;;;;;;17.52;5.22;;;;;;;9.20;100.00;102362.16;5020516;28;20471;-82
2022/12/02 10:51:18;;;;;;;19.55;5.43;;;;;;;9.39;100.00;102420.44;5019571;28;20045;-83
2022/12/02 10:53:49;;;;;;;13.93;5.60;;;;;;;9.37;100.00;102419.59;5050267;28;20049;-84
2022/12/02 10:56:19;;;;;;;17.35;5.55;;;;;;;9.40;100.00;102430.03;5022565;28;20483;-83
2022/12/02 10:58:49;;;;;;;14.27;5.13;;;;;;;9.60;100.00;102424.69;5018491;28;20060;-83
2022/12/02 11:01:18;;;;;;;13.30;5.20;;;;;;;9.42;100.00;102417.81;5018949;28;20034;-83
2022/12/02 11:03:45;;;;;;;11.90;4.85;;;;;;;9.43;100.00;102434.38;5020369;28;20054;-83
2022/12/02 11:06:14;;;;;;;17.50;5.03;;;;;;;9.56;100.00;102433.44;5015888;28;20046;-83
2022/12/02 11:08:42;;;;;;;16.92;6.60;;;;;;;9.18;100.00;102395.28;5009081;28;20451;-83
2022/12/02 11:11:36;;;;;;;15.25;5.00;;;;;;;9.37;100.00;102411.75;5006143;28;20067;-83
2022/12/02 11:14:23;;;;;;;19.35;6.10;;;;;;;9.59;100.00;102450.84;5021166;28;20049;-83
2022/12/02 11:17:06;;;;;;;21.15;5.75;;;;;;;9.72;100.00;102442.03;5018028;28;20104;-83
2022/12/02 11:19:33;;;;;;;15.30;5.20;;;;;;;9.38;100.00;102454.44;5013836;28;20042;-82
2022/12/02 11:22:00;;;;;;;13.90;4.68;;;;;;;9.21;100.00;102384.81;5018412;28;20049;-82
2022/12/02 11:24:27;;;;;;;15.13;5.43;;;;;;;9.58;100.00;102446.47;5020165;28;20058;-82
2022/12/02 11:27:02;;;;;;;12.68;4.90;;;;;;;9.63;100.00;102445.59;5016103;28;20084;-83
2022/12/02 11:29:38;;;;;;;19.88;5.28;;;;;;;9.42;100.00;102423.06;5016357;28;20479;-82
2022/12/02 11:32:14;;;;;;;14.35;4.10;;;;;;;9.52;100.00;102442.16;5017131;28;20046;-82